createdAt,value
2017-09-24T00:00:18.027Z,101851.77
2017-09-24T00:02:52.919Z,101847.47
2017-09-24T00:05:27.564Z,101845.48
2017-09-24T00:08:02.062Z,101842.18
2017-09-24T00:10:36.823Z,101839.34
2017-09-24T00:13:11.691Z,101842.71
2017-09-24T00:15:46.431Z,101840.83
2017-09-24T00:18:21.148Z,101842.39
2017-09-24T00:20:55.974Z,101847.23
2017-09-24T00:23:31.811Z,101848.59
2017-09-24T00:26:06.313Z,101842.97
2017-09-24T00:28:41.055Z,101837.23
2017-09-24T00:31:15.567Z,101838.98
2017-09-24T00:33:50.423Z,101833.91
2017-09-24T00:36:25.251Z,101822.78
2017-09-24T00:38:59.980Z,101833.41
2017-09-24T00:41:34.389Z,101832.94
2017-09-24T00:44:09.315Z,101831.67
2017-09-24T00:46:44.000Z,101828.73
2017-09-24T00:49:18.787Z,101827.91
2017-09-24T00:51:53.775Z,101827.13
2017-09-24T00:54:28.871Z,101833.19
2017-09-24T00:57:03.584Z,101835.51
2017-09-24T00:59:38.282Z,101837.83
2017-09-24T01:02:13.259Z,101825.21
2017-09-24T01:04:47.991Z,101828.62
2017-09-24T01:07:22.622Z,101826.95
2017-09-24T01:09:57.244Z,101831.20
2017-09-24T01:12:32.443Z,101830.25
2017-09-24T01:15:07.028Z,101829.91
2017-09-24T01:17:42.037Z,101831.28
2017-09-24T01:20:16.612Z,101826.44
2017-09-24T01:22:51.323Z,101833.32
2017-09-24T01:25:26.431Z,101824.05
2017-09-24T01:28:00.811Z,101828.88
2017-09-24T01:30:35.580Z,101833.67
2017-09-24T01:33:10.241Z,101835.47
2017-09-24T01:35:46.009Z,101825.94
2017-09-24T01:38:20.699Z,101834.30
2017-09-24T01:40:55.286Z,101829.91
2017-09-24T01:43:29.907Z,101839.70
2017-09-24T01:46:04.739Z,101836.87
2017-09-24T01:48:39.495Z,101834.62
2017-09-24T01:51:14.143Z,101833.97
2017-09-24T01:53:48.924Z,101843.91
2017-09-24T01:56:23.791Z,101840.11
2017-09-24T01:58:58.404Z,101841.84
2017-09-24T02:01:32.708Z,101841.20
2017-09-24T02:04:07.952Z,101847.91
2017-09-24T02:06:43.451Z,101844.41
2017-09-24T02:09:18.343Z,101845.17
2017-09-24T02:11:53.066Z,101838.03
2017-09-24T02:14:27.752Z,101845.81
2017-09-24T02:17:02.611Z,101846.84
2017-09-24T02:19:37.656Z,101849.25
2017-09-24T02:22:12.474Z,101842.55
2017-09-24T02:24:47.107Z,101838.02
2017-09-24T02:27:21.817Z,101839.08
2017-09-24T02:29:56.391Z,101836.34
2017-09-24T02:32:31.987Z,101831.34
2017-09-24T02:35:06.696Z,101834.67
2017-09-24T02:37:42.201Z,101837.14
2017-09-24T02:40:17.775Z,101837.73
2017-09-24T02:42:52.383Z,101827.67
2017-09-24T02:45:27.050Z,101825.23
2017-09-24T02:48:01.945Z,101822.50
2017-09-24T02:50:36.643Z,101826.06
2017-09-24T02:53:11.339Z,101819.30
2017-09-24T02:55:45.946Z,101818.84
2017-09-24T02:58:20.721Z,101823.41
2017-09-24T03:00:55.356Z,101817.09
2017-09-24T03:03:30.964Z,101825.67
2017-09-24T03:06:06.583Z,101830.70
2017-09-24T03:08:41.089Z,101827.84
2017-09-24T03:11:15.803Z,101826.17
2017-09-24T03:13:50.447Z,101830.75
2017-09-24T03:16:25.205Z,101836.73
2017-09-24T03:18:59.884Z,101837.31
2017-09-24T03:21:34.808Z,101832.67
2017-09-24T03:24:09.749Z,101828.49
2017-09-24T03:26:44.263Z,101824.91
2017-09-24T03:29:19.127Z,101824.77
2017-09-24T03:31:53.745Z,101824.11
2017-09-24T03:34:28.599Z,101822.64
2017-09-24T03:37:03.323Z,101825.46
2017-09-24T03:39:38.159Z,101818.70
2017-09-24T03:42:12.560Z,101820.84
2017-09-24T03:44:47.268Z,101822.58
2017-09-24T03:47:22.015Z,101822.82
2017-09-24T03:49:56.652Z,101825.23
2017-09-24T03:52:31.366Z,101825.14
2017-09-24T03:55:06.031Z,101820.97
2017-09-24T03:57:40.589Z,101827.94
2017-09-24T04:00:15.447Z,101821.56
2017-09-24T04:02:50.397Z,101820.38
2017-09-24T04:05:25.138Z,101823.67
2017-09-24T04:07:59.929Z,101826.37
2017-09-24T04:10:34.369Z,101822.32
2017-09-24T04:13:09.203Z,101812.00
2017-09-24T04:15:43.907Z,101811.36
2017-09-24T04:18:18.742Z,101807.50
2017-09-24T04:20:53.644Z,101805.71
2017-09-24T04:23:28.573Z,101811.62
2017-09-24T04:26:03.261Z,101810.09
2017-09-24T04:28:37.978Z,101811.06
2017-09-24T04:31:12.503Z,101815.41
2017-09-24T04:33:47.013Z,101825.20
2017-09-24T04:36:21.707Z,101837.08
2017-09-24T04:38:56.412Z,101835.91
2017-09-24T04:41:31.105Z,101837.70
2017-09-24T04:44:06.035Z,101838.61
2017-09-24T04:46:40.804Z,101845.17
2017-09-24T04:49:15.451Z,101842.17
2017-09-24T04:51:50.155Z,101852.61
2017-09-24T04:54:24.875Z,101847.44
2017-09-24T04:56:59.347Z,101852.96
2017-09-24T04:59:34.157Z,101847.69
2017-09-24T05:02:08.795Z,101854.25
2017-09-24T05:04:43.694Z,101855.16
2017-09-24T05:07:18.469Z,101860.30
2017-09-24T05:09:53.206Z,101863.91
2017-09-24T05:12:27.932Z,101864.73
2017-09-24T05:15:02.722Z,101864.04
2017-09-24T05:17:37.965Z,101865.77
2017-09-24T05:20:13.087Z,101872.09
2017-09-24T05:22:47.886Z,101868.41
2017-09-24T05:25:22.519Z,101870.84
2017-09-24T05:27:57.242Z,101867.06
2017-09-24T05:30:31.932Z,101864.89
2017-09-24T05:33:06.827Z,101868.50
2017-09-24T05:35:41.621Z,101868.56
2017-09-24T05:38:16.270Z,101865.33
2017-09-24T05:40:51.068Z,101860.55
2017-09-24T05:43:25.779Z,101865.70
2017-09-24T05:46:00.693Z,101854.83
2017-09-24T05:48:36.310Z,101853.61
2017-09-24T05:51:10.871Z,101858.55
2017-09-24T05:53:45.663Z,101857.02
2017-09-24T05:56:20.373Z,101862.09
2017-09-24T05:58:55.175Z,101861.38
2017-09-24T06:01:30.067Z,101855.16
2017-09-24T06:04:04.835Z,101864.37
2017-09-24T06:06:40.116Z,101865.28
2017-09-24T06:09:15.861Z,101869.79
2017-09-24T06:11:51.636Z,101870.17
2017-09-24T06:14:26.431Z,101869.98
2017-09-24T06:17:00.906Z,101868.87
2017-09-24T06:19:36.425Z,101871.37
2017-09-24T06:22:12.167Z,101875.88
2017-09-24T06:24:46.873Z,101878.58
2017-09-24T06:27:21.193Z,101882.25
2017-09-24T06:29:56.242Z,101874.89
2017-09-24T06:32:30.811Z,101877.68
2017-09-24T06:35:05.194Z,101878.77
2017-09-24T06:37:39.823Z,101884.46
2017-09-24T06:40:14.724Z,101886.81
2017-09-24T06:42:49.449Z,101883.46
2017-09-24T06:45:24.586Z,101880.25
2017-09-24T06:47:59.403Z,101889.34
2017-09-24T06:50:34.516Z,101890.20
2017-09-24T06:53:09.721Z,101888.45
2017-09-24T06:55:44.941Z,101887.67
2017-09-24T06:58:19.554Z,101887.71
2017-09-24T07:00:55.036Z,101884.28
2017-09-24T07:03:29.828Z,101887.83
2017-09-24T07:06:04.571Z,101887.87
2017-09-24T07:08:39.231Z,101886.12
2017-09-24T07:11:13.843Z,101884.97
2017-09-24T07:13:48.512Z,101895.21
2017-09-24T07:16:24.095Z,101894.02
2017-09-24T07:18:58.824Z,101896.73
2017-09-24T07:21:33.579Z,101894.00
2017-09-24T07:24:08.080Z,101890.64
2017-09-24T07:26:42.854Z,101898.16
2017-09-24T07:29:17.559Z,101903.41
2017-09-24T07:31:52.252Z,101901.39
2017-09-24T07:34:26.829Z,101901.02
2017-09-24T07:37:01.893Z,101903.07
2017-09-24T07:39:36.270Z,101913.04
2017-09-24T07:42:11.087Z,101919.09
2017-09-24T07:44:46.216Z,101909.00
2017-09-24T07:47:21.894Z,101911.27
2017-09-24T07:49:56.960Z,101902.67
2017-09-24T07:52:31.488Z,101905.50
2017-09-24T07:55:06.094Z,101904.39
2017-09-24T07:57:40.738Z,101914.38
2017-09-24T08:00:15.379Z,101909.09
2017-09-24T08:02:50.538Z,101908.63
2017-09-24T08:05:25.664Z,101902.98
2017-09-24T08:08:00.748Z,101901.84
2017-09-24T08:10:35.468Z,101908.61
2017-09-24T08:13:10.080Z,101904.82
2017-09-24T08:15:44.914Z,101909.68
2017-09-24T08:18:20.091Z,101908.88
2017-09-24T08:20:54.643Z,101911.94
2017-09-24T08:23:29.868Z,101903.66
2017-09-24T08:26:05.064Z,101908.27
2017-09-24T08:28:39.800Z,101902.41
2017-09-24T08:31:14.424Z,101894.36
2017-09-24T08:33:49.270Z,101896.45
2017-09-24T08:36:24.179Z,101901.59
2017-09-24T08:38:58.824Z,101900.36
2017-09-24T08:41:34.007Z,101899.20
2017-09-24T08:44:09.624Z,101893.72
2017-09-24T08:46:44.355Z,101901.33
2017-09-24T08:49:19.151Z,101907.58
2017-09-24T08:51:53.904Z,101901.10
2017-09-24T08:54:28.983Z,101906.29
2017-09-24T08:57:03.897Z,101899.05
2017-09-24T08:59:38.743Z,101901.67
2017-09-24T09:02:13.464Z,101885.39
2017-09-24T09:04:48.598Z,101892.19
2017-09-24T09:07:23.324Z,101890.45
2017-09-24T09:09:58.111Z,101885.48
2017-09-24T09:12:33.248Z,101882.52
2017-09-24T09:15:07.892Z,101890.30
2017-09-24T09:17:42.688Z,101888.47
2017-09-24T09:20:17.558Z,101883.63
2017-09-24T09:22:52.311Z,101887.55
2017-09-24T09:25:27.254Z,101887.41
2017-09-24T09:28:02.075Z,101891.52
2017-09-24T09:30:37.233Z,101883.84
2017-09-24T09:33:20.673Z,101878.91
2017-09-24T09:35:55.595Z,101875.92
2017-09-24T09:38:30.356Z,101874.89
2017-09-24T09:41:05.016Z,101877.86
2017-09-24T09:43:45.171Z,101882.36
2017-09-24T09:46:30.531Z,101890.89
2017-09-24T09:49:05.216Z,101883.23
2017-09-24T09:51:40.056Z,101885.92
2017-09-24T09:54:15.016Z,101880.06
2017-09-24T09:56:49.824Z,101882.14
2017-09-24T09:59:24.280Z,101887.66
2017-09-24T10:01:59.007Z,101892.48
2017-09-24T10:04:33.636Z,101885.20
2017-09-24T10:07:20.944Z,101891.47
2017-09-24T10:10:07.208Z,101883.88
2017-09-24T10:12:42.819Z,101874.72
2017-09-24T10:15:17.725Z,101886.45
2017-09-24T10:17:52.472Z,101880.38
2017-09-24T10:20:27.096Z,101876.88
2017-09-24T10:23:01.629Z,101874.66
2017-09-24T10:25:36.659Z,101875.16
2017-09-24T10:28:22.763Z,101875.06
2017-09-24T10:30:58.119Z,101873.39
2017-09-24T10:33:32.618Z,101867.05
2017-09-24T10:36:07.602Z,101868.30
2017-09-24T10:38:42.572Z,101865.88
2017-09-24T10:41:17.422Z,101867.66
2017-09-24T10:43:52.297Z,101867.56
2017-09-24T10:46:27.491Z,101869.45
2017-09-24T10:49:02.606Z,101869.36
2017-09-24T10:51:37.205Z,101867.35
2017-09-24T10:54:12.339Z,101868.84
2017-09-24T10:56:46.804Z,101879.12
2017-09-24T10:59:21.336Z,101876.28
2017-09-24T11:01:56.146Z,101877.75
2017-09-24T11:04:31.084Z,101883.15
2017-09-24T11:07:05.795Z,101883.70
2017-09-24T11:09:40.695Z,101885.42
2017-09-24T11:12:15.255Z,101882.69
2017-09-24T11:14:50.002Z,101881.00
2017-09-24T11:17:24.746Z,101872.78
2017-09-24T11:19:59.684Z,101883.16
2017-09-24T11:22:34.644Z,101883.12
2017-09-24T11:25:09.248Z,101887.37
2017-09-24T11:27:44.972Z,101887.97
2017-09-24T11:30:19.825Z,101890.27
2017-09-24T11:32:54.524Z,101889.19
2017-09-24T11:35:29.266Z,101894.77
2017-09-24T11:38:03.884Z,101886.12
2017-09-24T11:40:38.736Z,101889.17
2017-09-24T11:43:13.696Z,101891.16
2017-09-24T11:45:48.720Z,101886.59
2017-09-24T11:48:23.552Z,101884.53
2017-09-24T11:50:58.540Z,101884.53
2017-09-24T11:53:33.194Z,101885.03
2017-09-24T11:56:08.112Z,101890.13
2017-09-24T11:58:42.707Z,101888.70
2017-09-24T12:01:17.463Z,101886.82
2017-09-24T12:03:51.936Z,101884.98
2017-09-24T12:06:26.844Z,101893.47
2017-09-24T12:09:02.552Z,101890.45
2017-09-24T12:11:37.387Z,101886.67
2017-09-24T12:14:12.132Z,101887.35
2017-09-24T12:16:46.817Z,101890.07
2017-09-24T12:19:21.692Z,101885.62
2017-09-24T12:21:56.424Z,101892.91
2017-09-24T12:24:31.135Z,101883.64
2017-09-24T12:27:05.890Z,101889.34
2017-09-24T12:29:40.778Z,101889.23
2017-09-24T12:32:15.507Z,101891.48
2017-09-24T12:34:50.139Z,101894.55
2017-09-24T12:37:24.767Z,101890.01
2017-09-24T12:39:59.499Z,101886.06
2017-09-24T12:42:34.294Z,101888.69
2017-09-24T12:45:09.004Z,101886.97
2017-09-24T12:47:43.629Z,101892.80
2017-09-24T12:50:18.308Z,101893.59
2017-09-24T12:52:53.124Z,101889.11
2017-09-24T12:55:28.174Z,101893.57
2017-09-24T12:58:02.572Z,101890.25
2017-09-24T13:00:37.694Z,101894.70
2017-09-24T13:03:12.466Z,101892.23
2017-09-24T13:05:47.335Z,101888.28
2017-09-24T13:08:21.816Z,101893.88
2017-09-24T13:10:56.367Z,101887.12
2017-09-24T13:13:31.188Z,101881.95
2017-09-24T13:16:06.131Z,101888.38
2017-09-24T13:18:40.831Z,101887.59
2017-09-24T13:21:15.583Z,101884.87
2017-09-24T13:23:50.429Z,101891.84
2017-09-24T13:26:25.324Z,101889.39
2017-09-24T13:29:00.190Z,101879.34
2017-09-24T13:31:35.015Z,101885.13
2017-09-24T13:34:09.580Z,101882.33
2017-09-24T13:36:44.435Z,101876.51
2017-09-24T13:39:19.216Z,101877.80
2017-09-24T13:41:56.047Z,101872.20
2017-09-24T13:44:30.412Z,101875.90
2017-09-24T13:47:05.252Z,101869.14
2017-09-24T13:49:40.060Z,101870.53
2017-09-24T13:52:14.585Z,101871.97
2017-09-24T13:54:49.373Z,101867.65
2017-09-24T13:57:24.147Z,101860.25
2017-09-24T13:59:59.413Z,101866.10
2017-09-24T14:02:34.217Z,101864.28
2017-09-24T14:05:08.975Z,101865.83
2017-09-24T14:07:43.909Z,101870.20
2017-09-24T14:10:18.627Z,101870.77
2017-09-24T14:12:53.460Z,101871.41
2017-09-24T14:15:28.435Z,101867.36
2017-09-24T14:18:03.315Z,101869.64
2017-09-24T14:20:37.740Z,101872.12
2017-09-24T14:23:12.600Z,101875.55
2017-09-24T14:25:47.400Z,101874.67
2017-09-24T14:28:21.863Z,101879.31
2017-09-24T14:30:56.887Z,101871.24
2017-09-24T14:33:31.179Z,101871.31
2017-09-24T14:36:06.544Z,101872.64
2017-09-24T14:38:41.200Z,101872.23
2017-09-24T14:41:16.028Z,101872.38
2017-09-24T14:43:50.827Z,101860.91
2017-09-24T14:46:25.780Z,101870.64
2017-09-24T14:49:00.464Z,101868.21
2017-09-24T14:51:35.412Z,101870.28
2017-09-24T14:54:10.244Z,101868.91
2017-09-24T14:56:45.376Z,101861.66
2017-09-24T14:59:20.096Z,101859.66
2017-09-24T15:01:55.022Z,101861.00
2017-09-24T15:04:29.786Z,101861.88
2017-09-24T15:07:05.267Z,101854.92
2017-09-24T15:09:39.658Z,101859.20
2017-09-24T15:12:14.227Z,101858.80
2017-09-24T15:14:48.854Z,101858.09
2017-09-24T15:17:23.424Z,101860.20
2017-09-24T15:19:58.086Z,101859.50
2017-09-24T15:22:33.129Z,101856.08
2017-09-24T15:25:07.845Z,101862.08
2017-09-24T15:27:43.049Z,101863.47
2017-09-24T15:30:17.712Z,101870.65
2017-09-24T15:32:52.431Z,101865.61
2017-09-24T15:35:27.251Z,101868.63
2017-09-24T15:38:02.067Z,101874.89
2017-09-24T15:40:37.206Z,101870.77
2017-09-24T15:43:12.183Z,101876.36
2017-09-24T15:45:46.815Z,101870.55
2017-09-24T15:48:21.688Z,101871.53
2017-09-24T15:50:56.556Z,101872.82
2017-09-24T15:53:31.835Z,101872.82
2017-09-24T15:56:06.395Z,101869.44
2017-09-24T15:58:41.219Z,101868.92
2017-09-24T16:01:15.994Z,101865.61
2017-09-24T16:03:50.814Z,101867.93
2017-09-24T16:06:25.587Z,101867.56
2017-09-24T16:09:00.604Z,101870.70
2017-09-24T16:11:35.358Z,101870.14
2017-09-24T16:14:10.027Z,101866.53
2017-09-24T16:16:44.782Z,101866.64
2017-09-24T16:19:19.535Z,101866.50
2017-09-24T16:21:54.255Z,101869.52
2017-09-24T16:24:29.154Z,101858.28
2017-09-24T16:27:03.896Z,101856.15
2017-09-24T16:29:38.630Z,101862.41
2017-09-24T16:32:13.422Z,101857.51
2017-09-24T16:34:48.243Z,101862.59
2017-09-24T16:37:23.078Z,101864.25
2017-09-24T16:39:57.860Z,101861.71
2017-09-24T16:42:33.068Z,101870.36
2017-09-24T16:45:08.168Z,101866.80
2017-09-24T16:47:43.077Z,101865.39
2017-09-24T16:50:17.934Z,101873.30
2017-09-24T16:52:52.809Z,101869.91
2017-09-24T16:55:27.564Z,101873.03
2017-09-24T16:58:02.841Z,101873.03
2017-09-24T17:00:37.488Z,101869.97
2017-09-24T17:03:12.159Z,101873.45
2017-09-24T17:05:46.868Z,101878.05
2017-09-24T17:08:21.917Z,101880.52
2017-09-24T17:10:59.098Z,101878.09
2017-09-24T17:13:34.231Z,101881.25
2017-09-24T17:16:08.980Z,101880.70
2017-09-24T17:18:43.803Z,101887.28
2017-09-24T17:21:18.468Z,101883.17
2017-09-24T17:23:53.557Z,101882.96
2017-09-24T17:26:28.326Z,101880.06
2017-09-24T17:29:03.053Z,101883.57
2017-09-24T17:31:37.644Z,101877.98
2017-09-24T17:34:12.367Z,101882.58
2017-09-24T17:36:47.639Z,101887.99
2017-09-24T17:39:23.276Z,101895.83
2017-09-24T17:41:58.525Z,101896.45
2017-09-24T17:44:33.341Z,101895.02
2017-09-24T17:47:07.975Z,101895.26
2017-09-24T17:49:42.730Z,101899.09
2017-09-24T17:52:17.943Z,101899.61
2017-09-24T17:54:53.115Z,101900.47
2017-09-24T17:57:27.956Z,101899.72
2017-09-24T18:00:02.939Z,101894.50
2017-09-24T18:02:38.550Z,101895.02
2017-09-24T18:05:13.255Z,101897.30
2017-09-24T18:07:48.204Z,101895.45
2017-09-24T18:10:22.985Z,101906.12
2017-09-24T18:12:57.869Z,101911.19
2017-09-24T18:15:32.718Z,101910.63
2017-09-24T18:18:07.428Z,101906.66
2017-09-24T18:20:42.109Z,101905.95
2017-09-24T18:23:16.848Z,101908.63
2017-09-24T18:25:51.760Z,101907.27
2017-09-24T18:28:26.574Z,101913.38
2017-09-24T18:31:01.216Z,101917.53
2017-09-24T18:33:36.321Z,101911.27
2017-09-24T18:36:11.072Z,101914.58
2017-09-24T18:38:45.896Z,101909.82
2017-09-24T18:41:23.996Z,101915.64
2017-09-24T18:44:00.573Z,101916.92
2017-09-24T18:46:35.707Z,101909.47
2017-09-24T18:49:10.340Z,101903.12
2017-09-24T18:51:48.814Z,101907.28
2017-09-24T18:54:24.370Z,101911.80
2017-09-24T18:56:58.886Z,101912.95
2017-09-24T18:59:33.972Z,101916.80
2017-09-24T19:02:08.628Z,101920.03
2017-09-24T19:04:43.350Z,101910.07
2017-09-24T19:07:18.450Z,101909.93
2017-09-24T19:09:53.371Z,101908.32
2017-09-24T19:12:28.186Z,101914.36
2017-09-24T19:15:03.055Z,101903.48
2017-09-24T19:17:37.894Z,101908.77
2017-09-24T19:20:12.320Z,101917.03
2017-09-24T19:22:47.800Z,101914.02
2017-09-24T19:25:23.194Z,101910.45
2017-09-24T19:27:58.019Z,101904.64
2017-09-24T19:30:33.808Z,101908.35
2017-09-24T19:33:08.476Z,101902.67
2017-09-24T19:35:45.972Z,101902.67
2017-09-24T19:38:21.272Z,101899.18
2017-09-24T19:40:56.291Z,101905.03
2017-09-24T19:43:30.876Z,101900.03
2017-09-24T19:46:06.589Z,101895.48
2017-09-24T19:48:41.004Z,101899.77
2017-09-24T19:51:15.874Z,101895.25
2017-09-24T19:53:50.796Z,101895.84
2017-09-24T19:56:25.656Z,101899.95
2017-09-24T19:59:00.602Z,101905.30
2017-09-24T20:01:35.300Z,101900.67
2017-09-24T20:04:10.024Z,101900.67
2017-09-24T20:06:45.080Z,101901.15
2017-09-24T20:09:19.912Z,101902.95
2017-09-24T20:11:55.008Z,101907.47
2017-09-24T20:14:29.882Z,101902.06
2017-09-24T20:17:04.512Z,101903.32
2017-09-24T20:19:39.473Z,101909.08
2017-09-24T20:22:14.270Z,101907.95
2017-09-24T20:24:49.195Z,101909.02
2017-09-24T20:27:24.260Z,101903.20
2017-09-24T20:29:59.098Z,101909.09
2017-09-24T20:32:37.408Z,101907.35
2017-09-24T20:35:11.817Z,101906.98
2017-09-24T20:37:48.083Z,101911.95
2017-09-24T20:40:24.297Z,101913.62
2017-09-24T20:42:59.707Z,101911.18
2017-09-24T20:45:34.460Z,101910.67
2017-09-24T20:48:09.028Z,101912.16
2017-09-24T20:50:45.323Z,101914.52
2017-09-24T20:53:20.514Z,101913.46
2017-09-24T20:55:56.366Z,101920.33
2017-09-24T20:58:34.291Z,101914.95
2017-09-24T21:01:09.240Z,101918.29
2017-09-24T21:03:44.468Z,101915.13
2017-09-24T21:06:18.960Z,101910.06
2017-09-24T21:08:53.591Z,101908.70
2017-09-24T21:11:31.216Z,101908.16
2017-09-24T21:14:08.921Z,101910.20
2017-09-24T21:16:47.100Z,101914.19
2017-09-24T21:19:22.156Z,101912.89
2017-09-24T21:21:57.008Z,101906.56
2017-09-24T21:24:32.011Z,101912.69
2017-09-24T21:27:07.033Z,101913.33
2017-09-24T21:29:42.186Z,101909.86
2017-09-24T21:32:17.450Z,101907.14
2017-09-24T21:34:52.911Z,101906.64
2017-09-24T21:37:27.841Z,101907.69
2017-09-24T21:40:03.059Z,101910.78
2017-09-24T21:42:37.757Z,101907.38
2017-09-24T21:45:12.360Z,101911.90
2017-09-24T21:47:47.164Z,101917.16
2017-09-24T21:50:21.941Z,101916.28
2017-09-24T21:52:56.570Z,101913.62
2017-09-24T21:55:31.959Z,101916.02
2017-09-24T21:58:06.699Z,101917.34
2017-09-24T22:00:41.680Z,101920.55
2017-09-24T22:03:16.402Z,101915.72
2017-09-24T22:05:51.144Z,101911.20
2017-09-24T22:08:26.298Z,101918.37
2017-09-24T22:11:01.952Z,101916.02
2017-09-24T22:13:36.700Z,101918.41
2017-09-24T22:16:11.810Z,101919.80
2017-09-24T22:18:46.736Z,101919.57
2017-09-24T22:21:21.540Z,101908.44
2017-09-24T22:23:56.502Z,101915.24
2017-09-24T22:26:35.644Z,101913.44
2017-09-24T22:29:10.910Z,101917.85
2017-09-24T22:31:46.540Z,101917.14
2017-09-24T22:34:21.805Z,101914.44
2017-09-24T22:36:56.712Z,101909.98
2017-09-24T22:39:31.846Z,101912.00
2017-09-24T22:42:06.777Z,101913.34
2017-09-24T22:44:41.710Z,101909.84
2017-09-24T22:47:16.799Z,101906.70
2017-09-24T22:49:51.772Z,101906.08
2017-09-24T22:52:26.902Z,101904.35
2017-09-24T22:55:01.775Z,101905.28
2017-09-24T22:57:36.503Z,101907.64
2017-09-24T23:00:11.375Z,101897.22
2017-09-24T23:02:46.374Z,101892.95
2017-09-24T23:05:20.892Z,101892.61
2017-09-24T23:07:55.656Z,101893.59
2017-09-24T23:10:34.538Z,101890.59
2017-09-24T23:13:11.405Z,101890.56
2017-09-24T23:15:45.696Z,101890.73
2017-09-24T23:18:22.246Z,101880.55
2017-09-24T23:20:58.516Z,101879.83
2017-09-24T23:23:33.472Z,101887.77
2017-09-24T23:26:08.532Z,101889.32
2017-09-24T23:28:44.563Z,101891.35
2017-09-24T23:31:20.759Z,101895.11
2017-09-24T23:33:55.637Z,101891.45
2017-09-24T23:36:32.255Z,101891.20
2017-09-24T23:39:07.286Z,101885.45
2017-09-24T23:41:42.157Z,101887.98
2017-09-24T23:44:17.228Z,101885.61
2017-09-24T23:46:52.734Z,101881.77
2017-09-24T23:49:29.433Z,101887.41
2017-09-24T23:52:08.839Z,101889.62
2017-09-24T23:54:44.045Z,101880.06
2017-09-24T23:57:18.984Z,101877.66
2017-09-24T23:59:53.986Z,101871.27
